createdAt,value
2023-03-26T00:01:23.603Z,5.83
2023-03-26T00:03:54.590Z,6.63
2023-03-26T00:06:25.003Z,6.60
2023-03-26T00:08:57.174Z,6.40
2023-03-26T00:11:28.756Z,6.10
2023-03-26T00:13:58.117Z,6.70
2023-03-26T00:16:27.938Z,6.13
2023-03-26T00:18:57.702Z,6.50
2023-03-26T00:21:27.958Z,7.20
2023-03-26T00:23:56.712Z,6.87
2023-03-26T00:26:26.079Z,6.20
2023-03-26T00:28:54.719Z,6.00
2023-03-26T00:31:23.081Z,6.33
2023-03-26T00:33:55.648Z,6.73
2023-03-26T00:36:26.808Z,6.30
2023-03-26T00:38:55.770Z,6.20
2023-03-26T00:41:30.867Z,6.10
2023-03-26T00:44:00.770Z,6.50
2023-03-26T00:46:31.301Z,6.53
2023-03-26T00:49:01.724Z,5.67
2023-03-26T00:51:30.766Z,6.80
2023-03-26T00:53:59.429Z,6.13
2023-03-26T00:56:28.799Z,6.40
2023-03-26T00:58:57.756Z,6.17
2023-03-26T01:01:29.024Z,6.50
2023-03-26T01:04:07.361Z,6.20
2023-03-26T01:06:42.032Z,7.23
2023-03-26T01:09:16.207Z,6.90
2023-03-26T01:11:46.493Z,7.23
2023-03-26T01:14:17.584Z,6.67
2023-03-26T01:16:50.108Z,8.03
2023-03-26T01:19:24.952Z,7.10
2023-03-26T01:21:53.509Z,6.60
2023-03-26T01:24:23.151Z,8.50
2023-03-26T01:27:02.649Z,7.50
2023-03-26T01:29:37.564Z,7.70
2023-03-26T01:32:18.181Z,8.10
2023-03-26T01:34:57.307Z,8.07
2023-03-26T01:37:32.966Z,7.87
2023-03-26T01:40:07.007Z,7.73
2023-03-26T01:42:38.529Z,8.00
2023-03-26T01:45:11.250Z,7.30
2023-03-26T01:47:41.063Z,7.17
2023-03-26T01:50:11.174Z,6.67
2023-03-26T01:52:39.772Z,6.57
2023-03-26T01:55:11.856Z,6.80
2023-03-26T01:57:51.706Z,6.70
2023-03-26T02:00:26.608Z,6.50
2023-03-26T02:03:05.905Z,6.73
2023-03-26T02:05:37.885Z,6.07
2023-03-26T02:08:12.937Z,6.40
2023-03-26T02:10:45.258Z,5.70
2023-03-26T02:13:13.938Z,6.00
2023-03-26T02:15:42.358Z,5.87
2023-03-26T02:18:10.947Z,5.67
2023-03-26T02:20:38.980Z,5.77
2023-03-26T02:23:07.798Z,5.67
2023-03-26T02:25:39.811Z,5.70
2023-03-26T02:28:09.172Z,5.87
2023-03-26T02:30:37.842Z,5.90
2023-03-26T02:33:05.833Z,5.80
2023-03-26T02:35:33.892Z,5.77
2023-03-26T02:38:02.065Z,6.27
2023-03-26T02:40:30.004Z,5.53
2023-03-26T02:42:58.761Z,6.20
2023-03-26T02:45:28.257Z,6.73
2023-03-26T02:47:56.313Z,6.30
2023-03-26T02:50:24.319Z,6.17
2023-03-26T02:52:52.298Z,7.10
2023-03-26T02:55:20.281Z,6.47
2023-03-26T02:57:48.226Z,6.20
2023-03-26T03:00:17.157Z,6.20
2023-03-26T03:02:48.172Z,6.27
2023-03-26T03:05:18.127Z,6.30
2023-03-26T03:07:46.722Z,6.20
2023-03-26T03:10:15.674Z,5.93
2023-03-26T03:12:44.055Z,5.90
2023-03-26T03:15:13.198Z,5.97
2023-03-26T03:17:41.633Z,5.73
2023-03-26T03:20:12.277Z,5.70
2023-03-26T03:22:40.917Z,6.33
2023-03-26T03:25:14.246Z,5.73
2023-03-26T03:27:42.865Z,6.03
2023-03-26T03:30:13.194Z,5.93
2023-03-26T03:32:41.695Z,6.20
2023-03-26T03:35:11.376Z,5.93
2023-03-26T03:37:39.329Z,6.20
2023-03-26T03:40:10.732Z,6.23
2023-03-26T03:42:38.830Z,6.73
2023-03-26T03:45:07.861Z,6.03
2023-03-26T03:47:35.966Z,6.57
2023-03-26T03:50:04.286Z,6.63
2023-03-26T03:52:33.809Z,6.37
2023-03-26T03:55:01.836Z,6.63
2023-03-26T03:57:31.989Z,6.90
2023-03-26T04:00:00.023Z,6.50
2023-03-26T04:02:30.317Z,6.20
2023-03-26T04:04:58.794Z,6.13
2023-03-26T04:07:27.626Z,5.57
2023-03-26T04:09:57.001Z,5.40
2023-03-26T04:12:24.945Z,5.73
2023-03-26T04:14:52.879Z,5.60
2023-03-26T04:17:21.923Z,5.57
2023-03-26T04:19:50.360Z,5.67
2023-03-26T04:22:19.400Z,5.43
2023-03-26T04:24:48.817Z,5.57
2023-03-26T04:27:21.303Z,5.47
2023-03-26T04:29:50.760Z,5.07
2023-03-26T04:32:26.641Z,5.90
2023-03-26T04:34:54.949Z,5.43
2023-03-26T04:37:28.556Z,5.60
2023-03-26T04:39:56.526Z,6.57
2023-03-26T04:42:25.872Z,5.87
2023-03-26T04:44:53.818Z,5.30
2023-03-26T04:47:21.830Z,5.80
2023-03-26T04:49:49.834Z,5.60
2023-03-26T04:52:18.187Z,5.57
2023-03-26T04:54:47.767Z,6.10
2023-03-26T04:57:20.149Z,5.80
2023-03-26T04:59:50.204Z,5.50
2023-03-26T05:02:18.941Z,5.57
2023-03-26T05:04:47.078Z,5.23
2023-03-26T05:07:18.867Z,5.17
2023-03-26T05:09:46.813Z,5.90
2023-03-26T05:12:14.779Z,6.10
2023-03-26T05:14:42.737Z,5.90
2023-03-26T05:17:18.819Z,5.50
2023-03-26T05:19:47.694Z,5.13
2023-03-26T05:22:15.672Z,5.40
2023-03-26T05:24:43.612Z,5.60
2023-03-26T05:27:16.926Z,5.33
2023-03-26T05:29:44.845Z,5.70
2023-03-26T05:32:14.158Z,5.03
2023-03-26T05:34:42.616Z,4.97
2023-03-26T05:37:10.628Z,5.57
2023-03-26T05:39:38.674Z,5.30
2023-03-26T05:42:07.843Z,5.80
2023-03-26T05:44:35.838Z,5.43
2023-03-26T05:47:04.006Z,5.47
2023-03-26T05:49:33.341Z,5.93
2023-03-26T05:52:01.315Z,5.60
2023-03-26T05:54:29.439Z,5.87
2023-03-26T05:56:57.451Z,5.80
2023-03-26T05:59:25.636Z,5.83
2023-03-26T06:01:54.595Z,5.60
2023-03-26T06:04:22.648Z,5.13
2023-03-26T06:06:52.691Z,5.20
2023-03-26T06:09:20.664Z,5.70
2023-03-26T06:11:48.622Z,5.23
2023-03-26T06:14:17.022Z,5.60
2023-03-26T06:16:45.044Z,5.50
2023-03-26T06:19:12.995Z,5.70
2023-03-26T06:21:41.089Z,5.67
2023-03-26T06:24:10.693Z,5.83
2023-03-26T06:26:38.692Z,5.70
2023-03-26T06:29:07.292Z,5.57
2023-03-26T06:31:35.513Z,5.33
2023-03-26T06:34:03.590Z,5.60
2023-03-26T06:36:31.550Z,5.60
2023-03-26T06:39:00.933Z,5.57
2023-03-26T06:41:37.335Z,5.50
2023-03-26T06:44:05.297Z,5.20
2023-03-26T06:46:33.307Z,5.60
2023-03-26T06:49:01.315Z,5.10
2023-03-26T06:51:29.342Z,5.70
2023-03-26T06:53:57.285Z,5.30
2023-03-26T06:56:25.301Z,5.60
2023-03-26T06:58:54.620Z,5.10
2023-03-26T07:01:22.616Z,5.33
2023-03-26T07:03:50.707Z,5.53
2023-03-26T07:06:18.697Z,4.93
2023-03-26T07:08:46.922Z,5.27
2023-03-26T07:11:16.692Z,5.50
2023-03-26T07:13:45.915Z,5.07
2023-03-26T07:16:15.485Z,5.30
2023-03-26T07:18:43.492Z,5.50
2023-03-26T07:21:12.739Z,4.70
2023-03-26T07:23:41.230Z,5.07
2023-03-26T07:26:26.462Z,5.60
2023-03-26T07:29:04.494Z,5.30
2023-03-26T07:31:43.330Z,5.73
2023-03-26T07:34:22.798Z,5.73
2023-03-26T07:36:58.000Z,5.57
2023-03-26T07:39:39.244Z,5.10
2023-03-26T07:42:18.223Z,5.57
2023-03-26T07:44:52.387Z,5.20
2023-03-26T07:47:28.641Z,5.50
2023-03-26T07:49:58.210Z,5.60
2023-03-26T07:52:26.986Z,5.40
2023-03-26T07:54:55.550Z,5.57
2023-03-26T07:57:37.004Z,5.80
2023-03-26T08:00:12.186Z,5.60
2023-03-26T08:03:03.421Z,5.53
2023-03-26T08:05:35.416Z,5.57
2023-03-26T08:08:17.464Z,5.40
2023-03-26T08:11:01.141Z,5.70
2023-03-26T08:13:39.181Z,5.37
2023-03-26T08:16:13.627Z,5.60
2023-03-26T08:18:51.791Z,5.90
2023-03-26T08:21:25.515Z,5.50
2023-03-26T08:24:03.815Z,5.63
2023-03-26T08:26:39.157Z,5.40
2023-03-26T08:29:18.258Z,5.87
2023-03-26T08:31:49.008Z,5.60
2023-03-26T08:34:18.398Z,5.10
2023-03-26T08:36:46.777Z,5.00
2023-03-26T08:39:14.736Z,5.37
2023-03-26T08:42:30.667Z,5.87
2023-03-26T08:45:30.419Z,6.03
2023-03-26T08:48:32.421Z,6.03
2023-03-26T08:51:53.580Z,6.53
2023-03-26T08:54:53.915Z,5.90
2023-03-26T08:57:51.616Z,5.30
2023-03-26T09:00:36.690Z,5.70
2023-03-26T09:03:24.671Z,5.77
2023-03-26T09:06:09.857Z,5.27
2023-03-26T09:09:18.784Z,5.37
2023-03-26T09:12:26.102Z,5.07
2023-03-26T09:15:36.774Z,5.00
2023-03-26T09:18:21.720Z,5.27
2023-03-26T09:21:31.246Z,5.70
2023-03-26T09:24:28.823Z,5.00
2023-03-26T09:27:11.035Z,5.13
2023-03-26T09:30:15.655Z,5.60
2023-03-26T09:33:19.718Z,4.83
2023-03-26T09:35:57.710Z,5.07
2023-03-26T09:38:43.779Z,5.20
2023-03-26T09:41:17.867Z,5.50
2023-03-26T09:44:14.550Z,5.28
2023-03-26T09:46:51.651Z,5.70
2023-03-26T09:49:39.715Z,5.70
2023-03-26T09:52:32.777Z,5.40
2023-03-26T09:55:22.638Z,5.53
2023-03-26T09:58:08.918Z,5.70
2023-03-26T10:00:47.972Z,5.87
2023-03-26T10:03:27.050Z,5.90
2023-03-26T10:06:06.824Z,5.13
2023-03-26T10:08:56.077Z,5.10
2023-03-26T10:11:33.858Z,5.43
2023-03-26T10:14:08.960Z,5.70
2023-03-26T10:16:52.200Z,5.57
2023-03-26T10:19:53.164Z,5.23
2023-03-26T10:22:33.357Z,6.20
2023-03-26T10:25:23.265Z,6.10
2023-03-26T10:28:00.113Z,6.30
2023-03-26T10:30:45.136Z,5.90
2023-03-26T10:33:26.530Z,6.23
2023-03-26T10:36:09.727Z,6.60
2023-03-26T10:38:53.523Z,7.37
2023-03-26T10:41:30.272Z,6.77
2023-03-26T10:44:16.953Z,7.00
2023-03-26T10:47:11.302Z,6.53
2023-03-26T10:50:23.178Z,6.20
2023-03-26T10:52:55.444Z,6.07
2023-03-26T10:55:29.962Z,6.27
2023-03-26T10:58:02.974Z,5.50
2023-03-26T11:00:31.642Z,5.33
2023-03-26T11:03:18.248Z,5.60
2023-03-26T11:05:54.074Z,5.53
2023-03-26T11:08:31.944Z,7.90
2023-03-26T11:11:14.628Z,6.13
2023-03-26T11:13:48.652Z,5.77
2023-03-26T11:16:25.275Z,5.70
2023-03-26T11:19:00.404Z,6.43
2023-03-26T11:21:34.762Z,5.90
2023-03-26T11:24:25.523Z,6.05
2023-03-26T11:26:57.855Z,4.97
2023-03-26T11:29:52.771Z,4.97
2023-03-26T11:32:25.124Z,4.87
2023-03-26T11:35:00.073Z,5.83
2023-03-26T11:37:34.286Z,4.83
2023-03-26T11:40:07.179Z,4.90
2023-03-26T11:42:35.197Z,5.53
2023-03-26T11:45:07.572Z,4.80
2023-03-26T11:47:39.405Z,5.70
2023-03-26T11:50:11.815Z,5.00
2023-03-26T11:52:41.455Z,6.07
2023-03-26T11:55:12.929Z,5.33
2023-03-26T11:57:46.291Z,5.00
2023-03-26T12:00:19.447Z,5.03
2023-03-26T12:02:49.170Z,5.40
2023-03-26T12:05:20.835Z,5.43
2023-03-26T12:07:55.900Z,5.63
2023-03-26T12:10:27.665Z,5.03
2023-03-26T12:12:59.142Z,5.00
2023-03-26T12:15:28.343Z,5.70
2023-03-26T12:17:58.906Z,5.40
2023-03-26T12:20:36.056Z,5.50
2023-03-26T12:23:08.287Z,6.30
2023-03-26T12:25:38.614Z,5.63
2023-03-26T12:28:18.115Z,4.83
2023-03-26T12:30:55.003Z,4.90
2023-03-26T12:33:28.086Z,4.80
2023-03-26T12:36:00.552Z,4.87
2023-03-26T12:38:34.716Z,5.43
2023-03-26T12:41:07.974Z,4.50
2023-03-26T12:44:53.965Z,4.00
2023-03-26T12:47:56.241Z,4.33
2023-03-26T12:49:21.080Z,4.10
2023-03-26T12:51:52.857Z,4.43
2023-03-26T12:54:44.801Z,4.70
2023-03-26T12:57:21.325Z,4.27
2023-03-26T13:00:06.592Z,5.10
2023-03-26T13:03:15.004Z,5.07
2023-03-26T13:06:12.659Z,4.67
2023-03-26T13:09:25.373Z,4.87
2023-03-26T13:12:09.113Z,5.10
2023-03-26T13:14:52.131Z,5.10
2023-03-26T13:17:27.923Z,5.30
2023-03-26T13:20:06.722Z,4.80
2023-03-26T13:22:42.491Z,4.50
2023-03-26T13:25:23.744Z,5.10
2023-03-26T13:28:07.157Z,4.50
2023-03-26T13:30:42.669Z,4.37
2023-03-26T13:33:35.904Z,4.77
2023-03-26T13:36:23.059Z,5.73
2023-03-26T13:39:03.482Z,5.60
2023-03-26T13:41:42.755Z,4.80
2023-03-26T13:44:23.069Z,4.53
2023-03-26T13:46:56.169Z,5.00
2023-03-26T13:49:37.233Z,4.97
2023-03-26T13:52:11.164Z,4.27
2023-03-26T13:54:44.813Z,4.60
2023-03-26T13:57:20.280Z,5.20
2023-03-26T13:59:54.352Z,4.80
2023-03-26T14:02:29.994Z,6.00
2023-03-26T14:05:04.922Z,5.73
2023-03-26T14:07:40.203Z,6.03
2023-03-26T14:10:13.168Z,4.70
2023-03-26T14:12:55.084Z,4.90
2023-03-26T14:15:28.610Z,5.97
2023-03-26T14:18:06.094Z,6.63
2023-03-26T14:20:56.389Z,6.23
2023-03-26T14:23:39.982Z,7.53
2023-03-26T14:26:25.262Z,6.73
2023-03-26T14:29:21.553Z,6.27
2023-03-26T14:31:59.453Z,6.20
2023-03-26T14:34:40.187Z,5.37
2023-03-26T14:37:28.491Z,5.00
2023-03-26T14:40:28.997Z,5.50
2023-03-26T14:43:13.732Z,5.73
2023-03-26T14:46:00.706Z,5.80
2023-03-26T14:49:11.087Z,5.83
2023-03-26T14:52:05.184Z,6.50
2023-03-26T14:54:38.244Z,5.93
2023-03-26T14:57:52.380Z,6.10
2023-03-26T15:01:03.878Z,5.90
2023-03-26T15:04:14.212Z,5.30
2023-03-26T15:07:12.854Z,5.33
2023-03-26T15:10:17.844Z,4.93
2023-03-26T15:13:01.639Z,4.90
2023-03-26T15:16:07.430Z,5.47
2023-03-26T15:19:13.408Z,5.10
2023-03-26T15:22:13.879Z,5.00
2023-03-26T15:25:27.621Z,5.40
2023-03-26T15:28:43.503Z,5.47
2023-03-26T15:31:43.083Z,6.63
2023-03-26T15:35:04.114Z,5.80
2023-03-26T15:38:12.823Z,5.67
2023-03-26T15:41:03.357Z,5.80
2023-03-26T15:44:24.714Z,5.40
2023-03-26T15:47:02.863Z,5.37
2023-03-26T15:49:43.359Z,5.63
2023-03-26T15:52:25.116Z,5.23
2023-03-26T15:55:01.282Z,5.23
2023-03-26T15:57:36.203Z,5.17
2023-03-26T16:00:22.248Z,5.27
2023-03-26T16:03:09.743Z,5.47
2023-03-26T16:05:53.756Z,5.70
2023-03-26T16:08:30.719Z,5.60
2023-03-26T16:11:07.694Z,6.17
2023-03-26T16:13:39.573Z,5.80
2023-03-26T16:16:41.693Z,5.90
2023-03-26T16:19:37.278Z,5.80
2023-03-26T16:22:07.612Z,5.70
2023-03-26T16:24:37.241Z,5.17
2023-03-26T16:27:32.521Z,5.23
2023-03-26T16:30:27.389Z,5.45
2023-03-26T16:32:58.871Z,5.83
2023-03-26T16:35:41.638Z,6.30
2023-03-26T16:38:16.166Z,6.17
2023-03-26T16:40:58.319Z,5.63
2023-03-26T16:43:47.794Z,5.13
2023-03-26T16:46:30.580Z,5.60
2023-03-26T16:49:04.789Z,5.37
2023-03-26T16:51:51.771Z,6.00
2023-03-26T16:54:26.170Z,6.00
2023-03-26T16:57:00.686Z,6.00
2023-03-26T16:59:46.073Z,6.20
2023-03-26T17:02:46.464Z,6.33
2023-03-26T17:05:21.073Z,5.77
2023-03-26T17:08:01.291Z,5.60
2023-03-26T17:10:35.744Z,5.70
2023-03-26T17:13:08.796Z,6.10
2023-03-26T17:15:46.093Z,5.90
2023-03-26T17:18:28.359Z,6.00
2023-03-26T17:21:03.329Z,5.70
2023-03-26T17:23:41.366Z,6.20
2023-03-26T17:26:17.579Z,7.20
2023-03-26T17:28:59.784Z,6.70
2023-03-26T17:31:40.011Z,7.27
2023-03-26T17:34:34.572Z,7.10
2023-03-26T17:37:05.704Z,6.70
2023-03-26T17:40:37.185Z,7.27
2023-03-26T17:43:11.126Z,6.40
2023-03-26T17:45:42.108Z,6.17
2023-03-26T17:48:17.652Z,6.57
2023-03-26T17:50:53.062Z,6.73
2023-03-26T17:53:25.056Z,6.50
2023-03-26T17:55:54.813Z,6.77
2023-03-26T17:58:28.129Z,6.90
2023-03-26T18:01:06.007Z,7.30
2023-03-26T18:03:37.271Z,8.13
2023-03-26T18:06:10.465Z,9.10
2023-03-26T18:08:57.988Z,12.80
2023-03-26T18:11:53.324Z,19.90
2023-03-26T18:14:59.081Z,10.60
2023-03-26T18:17:27.204Z,8.87
2023-03-26T18:20:05.470Z,8.50
2023-03-26T18:22:35.090Z,8.53
2023-03-26T18:25:04.678Z,8.23
2023-03-26T18:27:39.125Z,8.30
2023-03-26T18:30:16.766Z,8.57
2023-03-26T18:32:52.506Z,8.07
2023-03-26T18:35:23.211Z,7.20
2023-03-26T18:37:55.883Z,7.70
2023-03-26T18:40:25.613Z,7.73
2023-03-26T18:42:56.722Z,7.53
2023-03-26T18:45:28.285Z,7.50
2023-03-26T18:47:59.291Z,8.00
2023-03-26T18:50:29.633Z,8.30
2023-03-26T18:53:01.010Z,7.20
2023-03-26T18:55:30.775Z,7.53
2023-03-26T18:57:58.915Z,7.00
2023-03-26T19:00:30.353Z,6.97
2023-03-26T19:03:05.811Z,6.47
2023-03-26T19:05:35.800Z,6.63
2023-03-26T19:08:07.132Z,6.13
2023-03-26T19:10:35.634Z,5.77
2023-03-26T19:13:05.104Z,6.50
2023-03-26T19:15:35.412Z,6.20
2023-03-26T19:18:09.799Z,5.90
2023-03-26T19:20:42.242Z,5.83
2023-03-26T19:23:16.097Z,5.70
2023-03-26T19:25:47.871Z,6.20
2023-03-26T19:28:20.213Z,5.20
2023-03-26T19:30:48.435Z,5.73
2023-03-26T19:33:18.714Z,5.70
2023-03-26T19:35:52.101Z,5.87
2023-03-26T19:38:24.599Z,6.00
2023-03-26T19:40:55.300Z,6.37
2023-03-26T19:43:24.700Z,5.90
2023-03-26T19:46:00.094Z,6.20
2023-03-26T19:48:45.842Z,6.77
2023-03-26T19:51:21.722Z,5.57
2023-03-26T19:53:54.298Z,5.60
2023-03-26T19:56:23.008Z,5.90
2023-03-26T19:58:51.743Z,6.17
2023-03-26T20:01:22.807Z,5.50
2023-03-26T20:03:52.857Z,6.23
2023-03-26T20:06:30.893Z,6.07
2023-03-26T20:09:07.633Z,6.57
2023-03-26T20:11:38.755Z,6.70
2023-03-26T20:14:13.912Z,6.60
2023-03-26T20:16:43.807Z,6.20
2023-03-26T20:19:14.091Z,6.77
2023-03-26T20:21:42.701Z,6.60
2023-03-26T20:24:15.726Z,6.57
2023-03-26T20:26:44.441Z,7.30
2023-03-26T20:29:12.920Z,7.00
2023-03-26T20:31:42.043Z,6.60
2023-03-26T20:34:17.299Z,6.70
2023-03-26T20:36:46.178Z,7.03
2023-03-26T20:39:15.640Z,6.83
2023-03-26T20:41:47.207Z,6.87
2023-03-26T20:44:17.304Z,7.27
2023-03-26T20:46:46.694Z,8.43
2023-03-26T20:49:15.832Z,7.50
2023-03-26T20:51:45.104Z,7.80
2023-03-26T20:54:19.630Z,8.33
2023-03-26T20:56:49.241Z,9.30
2023-03-26T20:59:22.388Z,9.17
2023-03-26T21:01:51.380Z,8.77
2023-03-26T21:04:20.442Z,8.00
2023-03-26T21:06:48.830Z,8.93
2023-03-26T21:09:23.607Z,8.50
2023-03-26T21:12:01.577Z,9.23
2023-03-26T21:14:33.815Z,9.67
2023-03-26T21:17:02.405Z,9.23
2023-03-26T21:19:30.924Z,9.10
2023-03-26T21:22:09.132Z,8.43
2023-03-26T21:24:50.693Z,8.07
2023-03-26T21:27:26.449Z,8.37
2023-03-26T21:29:56.203Z,9.27
2023-03-26T21:32:25.221Z,9.80
2023-03-26T21:37:25.690Z,9.90
2023-03-26T21:39:56.351Z,9.07
2023-03-26T21:42:26.890Z,10.10
2023-03-26T21:44:55.375Z,10.53
2023-03-26T21:47:23.814Z,10.97
2023-03-26T21:49:52.364Z,10.07
2023-03-26T21:52:22.574Z,9.43
2023-03-26T21:54:51.378Z,9.43
2023-03-26T21:57:40.602Z,9.70
2023-03-26T22:00:14.799Z,9.40
2023-03-26T22:02:59.976Z,8.63
2023-03-26T22:05:36.150Z,9.00
2023-03-26T22:08:06.832Z,9.63
2023-03-26T22:10:35.004Z,9.33
2023-03-26T22:13:04.325Z,9.50
2023-03-26T22:15:32.311Z,10.77
2023-03-26T22:18:04.709Z,10.93
2023-03-26T22:20:32.705Z,10.33
2023-03-26T22:23:01.841Z,10.23
2023-03-26T22:25:30.275Z,9.43
2023-03-26T22:27:58.427Z,10.00
2023-03-26T22:30:28.280Z,10.37
2023-03-26T22:32:56.761Z,10.13
2023-03-26T22:35:24.766Z,9.93
2023-03-26T22:37:52.828Z,9.53
2023-03-26T22:40:29.202Z,10.33
2023-03-26T22:42:57.153Z,9.50
2023-03-26T22:45:25.098Z,10.70
2023-03-26T22:48:03.016Z,9.70
2023-03-26T22:50:32.483Z,11.30
2023-03-26T22:53:00.573Z,12.30
2023-03-26T22:55:30.003Z,12.90
2023-03-26T22:57:58.569Z,12.80
2023-03-26T23:00:26.798Z,12.83
2023-03-26T23:03:00.219Z,13.73
2023-03-26T23:05:29.397Z,15.13
2023-03-26T23:07:58.315Z,15.97
2023-03-26T23:10:26.342Z,16.00
2023-03-26T23:12:54.386Z,17.47
2023-03-26T23:15:22.337Z,14.63
2023-03-26T23:17:54.220Z,13.97
2023-03-26T23:20:24.591Z,12.10
2023-03-26T23:22:52.681Z,12.43
2023-03-26T23:25:21.071Z,12.00
2023-03-26T23:27:50.651Z,13.77
2023-03-26T23:30:19.265Z,14.87
2023-03-26T23:32:47.465Z,15.90
2023-03-26T23:35:15.714Z,16.47
2023-03-26T23:37:45.072Z,15.10
2023-03-26T23:40:14.074Z,15.13
2023-03-26T23:42:42.460Z,16.07
2023-03-26T23:45:12.375Z,15.90
2023-03-26T23:47:42.342Z,16.40
2023-03-26T23:50:11.557Z,16.97
2023-03-26T23:52:39.833Z,18.73
2023-03-26T23:55:09.940Z,18.23
2023-03-26T23:57:38.167Z,18.93
